Time;durP1;ratioP1;P1;durP2;ratioP2;P2;SDS_P1;SDS_P2;PMS_P1;PMS_P2;Temp;Humidity;BMP_temperature;BMP_pressure;BME280_temperature;BME280_humidity;BME280_pressure;Samples;Min_cycle;Max_cycle;Signal;HPM_P1;HPM_P2
2022/08/24 00:02:57;;;;;;;1999.90;999.90;;;;;;;16.90;78.04;99357.78;10001261;23;20061;-77
2022/08/24 00:07:00;;;;;;;1999.90;999.90;;;;;;;16.86;77.76;99364.88;9982959;23;20033;-78
2022/08/24 00:11:02;;;;;;;1999.90;999.90;;;;;;;16.79;77.87;99354.63;10030417;23;20023;-77
2022/08/24 00:15:09;;;;;;;1999.90;999.90;;;;;;;16.76;77.95;99352.09;10004339;23;20022;-77
2022/08/24 00:19:10;;;;;;;1999.90;999.90;;;;;;;16.77;78.43;99348.56;10004489;23;20023;-77
2022/08/24 00:23:12;;;;;;;1999.90;999.90;;;;;;;16.78;78.55;99348.53;10044979;23;20026;-78
2022/08/24 00:27:14;;;;;;;1999.90;999.90;;;;;;;16.77;78.75;99345.94;10004888;23;20038;-78
2022/08/24 00:31:16;;;;;;;1999.90;999.90;;;;;;;16.71;78.51;99343.53;10025195;23;20027;-77
2022/08/24 00:35:18;;;;;;;1999.90;999.90;;;;;;;16.66;77.90;99355.84;10029436;23;20030;-78
2022/08/24 00:39:21;;;;;;;1999.90;999.90;;;;;;;16.67;79.22;99347.97;9982698;23;20082;-77
2022/08/24 00:43:24;;;;;;;1999.90;999.90;;;;;;;16.62;79.43;99358.56;10005207;23;20034;-77
2022/08/24 00:47:38;;;;;;;1999.90;999.90;;;;;;;16.63;79.03;99352.41;9975068;23;20033;-78
2022/08/24 00:51:46;;;;;;;1999.90;999.90;;;;;;;16.66;79.39;99354.09;9979063;23;20455;-78
2022/08/24 00:55:54;;;;;;;1999.90;999.90;;;;;;;16.68;79.19;99351.44;10029623;23;20307;-78
2022/08/24 01:00:19;;;;;;;1999.90;999.90;;;;;;;16.66;79.74;99350.59;10029046;23;20684;-77
2022/08/24 01:04:27;;;;;;;1999.90;999.90;;;;;;;16.61;79.73;99343.75;10020687;23;20039;-78
2022/08/24 01:08:36;;;;;;;1999.90;999.90;;;;;;;16.55;79.74;99348.31;10005092;23;20031;-79
2022/08/24 01:12:42;;;;;;;1999.90;999.90;;;;;;;16.51;79.12;99341.44;10028573;23;20098;-78
2022/08/24 01:21:33;;;;;;;1999.90;999.90;;;;;;;16.44;80.23;99343.38;10029466;23;19953;-78
2022/08/24 01:25:36;;;;;;;1999.90;999.90;;;;;;;16.42;80.58;99339.94;10029983;23;20022;-78
2022/08/24 01:29:40;;;;;;;1999.90;999.90;;;;;;;16.35;80.93;99338.41;10020532;23;20018;-79
2022/08/24 01:33:42;;;;;;;1999.90;999.90;;;;;;;16.30;80.63;99342.91;10025121;23;20031;-78
2022/08/24 01:37:44;;;;;;;1999.90;999.90;;;;;;;16.27;80.26;99340.38;10005030;23;20068;-78
2022/08/24 01:41:47;;;;;;;1999.90;999.90;;;;;;;16.23;80.43;99341.38;10003844;23;20090;-78
2022/08/24 01:45:49;;;;;;;;;;;;;;;16.18;80.32;99338.03;10000599;23;20030;-78
2022/08/24 01:49:50;;;;;;;1999.90;999.90;;;;;;;16.13;80.99;99346.00;10005458;23;19984;-77
2022/08/24 01:53:52;;;;;;;1999.90;999.90;;;;;;;16.09;81.45;99338.28;9980619;23;20272;-78
2022/08/24 01:58:02;;;;;;;1999.90;999.90;;;;;;;16.07;81.81;99343.56;10007810;23;20059;-78
2022/08/24 02:02:06;;;;;;;;;;;;;;;16.02;81.75;99351.56;10039917;23;20045;-77
2022/08/24 02:06:08;;;;;;;1999.90;999.90;;;;;;;16.00;82.33;99358.59;10012823;23;19922;-78
2022/08/24 02:10:13;;;;;;;1999.90;999.90;;;;;;;15.94;82.63;99356.13;10013537;23;20026;-78
2022/08/24 02:14:15;;;;;;;1999.90;999.90;;;;;;;15.95;82.35;99357.84;10053095;23;20082;-77
2022/08/24 02:18:16;;;;;;;1999.90;999.90;;;;;;;15.88;82.75;99358.91;10009509;23;20030;-78
2022/08/24 02:22:26;;;;;;;1999.90;999.90;;;;;;;15.90;82.75;99357.09;9990707;23;20038;-77
2022/08/24 02:26:27;;;;;;;1999.90;999.90;;;;;;;15.86;82.72;99363.34;10013098;23;20033;-77
2022/08/24 02:30:32;;;;;;;1999.90;999.90;;;;;;;15.79;82.88;99364.38;10049976;23;20033;-76
2022/08/24 02:34:34;;;;;;;1999.90;999.90;;;;;;;15.68;82.78;99364.66;10052028;23;20612;-77
2022/08/24 02:38:35;;;;;;;1999.90;999.90;;;;;;;15.67;82.86;99365.56;10036171;23;20026;-77
2022/08/24 02:42:37;;;;;;;1999.90;999.90;;;;;;;15.62;82.55;99364.84;10009385;23;20280;-77
2022/08/24 02:46:38;;;;;;;1999.90;999.90;;;;;;;15.61;82.62;99357.84;10007129;23;20031;-77
2022/08/24 02:50:50;;;;;;;1999.90;999.90;;;;;;;15.57;82.70;99364.03;10034951;23;20043;-77
2022/08/24 02:54:58;;;;;;;1999.90;999.90;;;;;;;15.51;83.47;99365.97;10034769;23;20023;-77
2022/08/24 02:59:06;;;;;;;1999.90;999.90;;;;;;;15.43;83.32;99366.13;10035169;23;20034;-77
2022/08/24 03:03:10;;;;;;;1999.90;999.90;;;;;;;15.30;83.90;99359.50;10003958;23;20681;-77
2022/08/24 03:07:11;;;;;;;1999.90;999.90;;;;;;;15.31;84.18;99366.44;10005916;23;20015;-78
2022/08/24 03:11:13;;;;;;;1999.90;999.90;;;;;;;15.28;84.22;99364.75;10004704;23;20030;-77
2022/08/24 03:15:15;;;;;;;1999.90;999.90;;;;;;;15.27;84.30;99367.41;10000776;23;20061;-77
2022/08/24 03:19:17;;;;;;;1999.90;999.90;;;;;;;15.26;84.67;99370.91;9980014;23;20031;-77
2022/08/24 03:23:19;;;;;;;1999.90;999.90;;;;;;;15.20;84.79;99364.06;10029158;23;20033;-77
2022/08/24 03:27:21;;;;;;;1999.90;999.90;;;;;;;15.12;84.93;99360.78;10029592;23;20074;-78
2022/08/24 03:31:22;;;;;;;1999.90;999.90;;;;;;;15.07;85.12;99360.00;9976859;23;20273;-77
2022/08/24 03:35:30;;;;;;;1999.90;999.90;;;;;;;15.02;85.38;99373.19;10004785;23;20023;-77
2022/08/24 03:39:32;;;;;;;1999.90;999.90;;;;;;;14.97;85.88;99361.13;10004287;23;20051;-77
2022/08/24 03:43:46;;;;;;;1999.90;999.90;;;;;;;14.94;85.30;99355.97;10043649;23;20031;-77
2022/08/24 03:47:54;;;;;;;1999.90;999.90;;;;;;;14.90;85.52;99356.91;10000380;23;20051;-77
2022/08/24 03:51:56;;;;;;;1999.90;999.90;;;;;;;14.89;86.13;99365.66;10029211;23;20022;-78
2022/08/24 03:56:04;;;;;;;1999.90;999.90;;;;;;;14.86;85.46;99373.56;10002462;23;20054;-77
2022/08/24 04:00:10;;;;;;;1999.90;999.90;;;;;;;14.77;86.01;99364.19;10023706;23;20030;-77
2022/08/24 04:04:11;;;;;;;1999.90;999.90;;;;;;;14.70;85.74;99373.91;10003756;23;20498;-77
2022/08/24 04:08:19;;;;;;;1999.90;999.90;;;;;;;14.65;86.02;99367.94;10005519;23;20018;-78
2022/08/24 04:12:22;;;;;;;1999.90;999.90;;;;;;;14.64;86.09;99362.72;10004860;23;20034;-78
2022/08/24 04:16:24;;;;;;;;;;;;;;;14.64;86.58;99363.59;10001055;23;20041;-78
2022/08/24 04:20:27;;;;;;;1999.90;999.90;;;;;;;14.64;86.55;99360.13;10003937;23;19967;-78
2022/08/24 04:24:30;;;;;;;1999.90;999.90;;;;;;;14.61;86.85;99363.66;10028759;23;20058;-77
2022/08/24 04:28:31;;;;;;;1999.90;999.90;;;;;;;14.63;86.45;99366.25;10003265;23;20015;-78
2022/08/24 04:32:34;;;;;;;1999.90;999.90;;;;;;;14.60;86.29;99374.16;10027815;23;20691;-77
2022/08/24 04:36:35;;;;;;;1999.90;999.90;;;;;;;14.56;86.70;99380.34;9960238;23;20062;-77
2022/08/24 04:40:39;;;;;;;1999.90;999.90;;;;;;;14.56;86.27;99385.56;9933021;23;20765;-77
2022/08/24 04:44:40;;;;;;;1999.90;999.90;;;;;;;14.51;86.50;99386.50;9932361;23;20803;-77
2022/08/24 04:48:44;;;;;;;1999.90;999.90;;;;;;;14.52;86.78;99389.97;9926861;23;20054;-77
2022/08/24 04:52:46;;;;;;;1999.90;999.90;;;;;;;14.51;86.46;99389.09;9953945;23;20027;-77
2022/08/24 04:56:48;;;;;;;1999.90;999.90;;;;;;;14.51;86.80;99388.25;9932174;23;20026;-77
2022/08/24 05:00:49;;;;;;;1999.90;999.90;;;;;;;14.52;86.86;99397.81;9928352;23;20030;-77
2022/08/24 05:04:57;;;;;;;1999.90;999.90;;;;;;;14.58;86.68;99399.47;9980074;23;20050;-77
2022/08/24 05:09:04;;;;;;;1999.90;999.90;;;;;;;14.59;86.90;99398.56;9955399;23;20027;-77
2022/08/24 05:13:07;;;;;;;1999.90;999.90;;;;;;;14.64;86.82;99407.16;9955823;23;20063;-77
2022/08/24 05:17:08;;;;;;;1999.90;999.90;;;;;;;14.73;87.46;99400.00;9975740;23;20031;-78
2022/08/24 05:21:14;;;;;;;1999.90;999.90;;;;;;;14.78;86.37;99405.13;9932201;23;20384;-78
2022/08/24 05:25:16;;;;;;;1999.90;999.90;;;;;;;14.88;86.45;99400.53;9980404;23;20024;-77
2022/08/24 05:29:24;;;;;;;1999.90;999.90;;;;;;;15.00;86.16;99403.75;9957795;23;20038;-76
2022/08/24 05:33:26;;;;;;;1999.90;999.90;;;;;;;15.15;86.06;99399.09;9962507;23;20677;-77
2022/08/24 05:37:39;;;;;;;1999.90;999.90;;;;;;;15.30;85.97;99412.69;10005796;23;20125;-78
2022/08/24 05:41:42;;;;;;;1999.90;999.90;;;;;;;15.50;85.76;99411.34;10010297;23;20030;-77
2022/08/24 05:45:44;;;;;;;1999.90;999.90;;;;;;;15.67;84.47;99415.31;10042415;23;20110;-78
2022/08/24 05:49:46;;;;;;;1999.90;999.90;;;;;;;15.93;84.10;99421.63;10013480;23;20050;-79
2022/08/24 05:53:48;;;;;;;1999.90;999.90;;;;;;;16.72;81.26;99437.88;10009819;23;20422;-78
2022/08/24 05:57:56;;;;;;;1999.90;999.90;;;;;;;16.68;79.06;99425.72;10033634;23;20018;-78
2022/08/24 06:02:04;;;;;;;1999.90;999.90;;;;;;;17.07;77.71;99431.59;10003596;23;20593;-78
2022/08/24 06:06:07;;;;;;;1999.90;999.90;;;;;;;17.61;75.87;99433.41;10007615;23;20023;-78
2022/08/24 06:10:10;;;;;;;1999.90;999.90;;;;;;;18.03;74.73;99436.38;10006862;23;20046;-78
2022/08/24 06:14:33;;;;;;;;;;;;;;;18.02;74.71;99433.81;10008361;23;20109;-79
2022/08/24 06:18:35;;;;;;;1999.90;999.90;;;;;;;18.03;73.77;99430.28;10001977;23;19921;-78
2022/08/24 06:22:37;;;;;;;1999.90;999.90;;;;;;;18.15;73.32;99435.13;10007287;23;20054;-78
2022/08/24 06:31:01;;;;;;;1999.90;999.90;;;;;;;18.73;71.91;99437.47;10045935;23;20035;-77
2022/08/24 06:35:03;;;;;;;1999.90;999.90;;;;;;;19.16;70.32;99431.44;10029469;23;20105;-77
2022/08/24 06:39:08;;;;;;;1999.90;999.90;;;;;;;19.56;68.95;99434.22;10032211;23;20327;-78
2022/08/24 06:43:10;;;;;;;1999.90;999.90;;;;;;;19.94;67.51;99428.34;10047417;23;20029;-78
2022/08/24 06:47:18;;;;;;;1999.90;999.90;;;;;;;20.43;66.35;99435.88;10028470;23;20057;-77
2022/08/24 06:51:27;;;;;;;1999.90;999.90;;;;;;;20.91;63.42;99441.66;10007546;23;20027;-77
2022/08/24 06:55:28;;;;;;;1999.90;999.90;;;;;;;21.45;60.73;99442.69;10006165;23;20307;-77
2022/08/24 06:59:31;;;;;;;1999.90;999.90;;;;;;;22.06;59.84;99445.81;9981805;23;20054;-77
2022/08/24 07:03:32;;;;;;;1999.90;999.90;;;;;;;22.64;57.42;99441.97;10002203;23;20026;-78
2022/08/24 07:07:41;;;;;;;1999.90;999.90;;;;;;;23.14;55.10;99442.75;9983393;23;20051;-77
2022/08/24 07:11:42;;;;;;;1999.90;999.90;;;;;;;23.56;53.60;99440.47;9977534;23;20058;-78
2022/08/24 07:15:44;;;;;;;1999.90;999.90;;;;;;;23.97;51.05;99448.72;9995110;23;20366;-78
2022/08/24 07:19:46;;;;;;;1999.90;999.90;;;;;;;24.36;49.96;99445.53;10004959;23;20019;-78
2022/08/24 07:23:53;;;;;;;1999.90;999.90;;;;;;;24.73;48.45;99436.16;10020695;23;20034;-77
2022/08/24 07:27:54;;;;;;;1999.90;999.90;;;;;;;25.11;47.21;99447.09;9983066;23;20415;-78
2022/08/24 07:32:09;;;;;;;1999.90;999.90;;;;;;;25.44;46.58;99452.06;9980397;23;20026;-77
2022/08/24 07:36:18;;;;;;;1999.90;999.90;;;;;;;25.77;45.59;99448.19;10004040;23;20033;-77
2022/08/24 07:40:24;;;;;;;1999.90;999.90;;;;;;;25.98;44.07;99452.09;10003966;23;20019;-78
2022/08/24 07:44:26;;;;;;;1999.90;999.90;;;;;;;26.21;43.42;99450.53;10003606;23;20731;-77
2022/08/24 07:48:28;;;;;;;;;;;;;;;26.45;43.36;99453.38;9999299;23;20023;-77
2022/08/24 07:52:30;;;;;;;1999.90;999.90;;;;;;;26.69;42.55;99451.66;10027072;23;19922;-77
2022/08/24 07:56:39;;;;;;;1999.90;999.90;;;;;;;26.91;41.61;99463.47;9982027;23;20315;-77
2022/08/24 08:00:48;;;;;;;1999.90;999.90;;;;;;;27.22;41.05;99454.19;9978476;23;20362;-77
2022/08/24 08:04:49;;;;;;;1999.90;999.90;;;;;;;27.42;40.41;99455.41;10003864;23;20038;-77
2022/08/24 08:08:51;;;;;;;1999.90;999.90;;;;;;;27.62;39.28;99457.47;9980496;23;20023;-77
2022/08/24 08:12:52;;;;;;;;;;;;;;;27.84;39.36;99460.31;10006222;23;20023;-77
2022/08/24 08:16:54;;;;;;;1999.90;999.90;;;;;;;28.13;38.92;99459.91;10026236;23;20324;-78
2022/08/24 08:20:55;;;;;;;1999.90;999.90;;;;;;;28.46;38.19;99468.06;10005139;23;20026;-78
2022/08/24 08:25:06;;;;;;;1999.90;999.90;;;;;;;28.73;37.77;99470.44;8546944;27;20140;-76
2022/08/24 08:29:14;;;;;;;1999.90;999.90;;;;;;;28.84;37.15;99470.44;8541097;27;20093;-76
2022/08/24 08:33:23;;;;;;;1999.90;999.90;;;;;;;28.91;37.16;99470.00;8451402;27;20082;-76
2022/08/24 08:37:31;;;;;;;1999.90;999.90;;;;;;;29.12;36.94;99468.28;8437623;28;20086;-76
2022/08/24 08:42:13;;;;;;;1999.90;999.90;;;;;;;29.22;35.91;99461.22;8435070;28;20036;-76
2022/08/24 08:46:30;;;;;;;1999.90;999.90;;;;;;;29.52;36.17;99463.28;8421226;28;20088;-76
2022/08/24 08:50:54;;;;;;;1999.90;999.90;;;;;;;29.76;35.73;99455.03;8451486;28;20045;-77
2022/08/24 08:55:03;;;;;;;1999.90;999.90;;;;;;;29.96;35.34;99454.22;8419567;28;20044;-76
2022/08/24 08:59:34;;;;;;;1999.90;999.90;;;;;;;30.16;34.80;99457.94;8424681;28;20562;-77
2022/08/24 09:04:00;;;;;;;1999.90;999.90;;;;;;;30.38;34.17;99454.31;8438115;28;20043;-76
2022/08/24 09:08:16;;;;;;;1999.90;999.90;;;;;;;30.37;32.94;99448.09;8437870;28;20075;-76
2022/08/24 09:12:34;;;;;;;1999.90;999.90;;;;;;;30.28;32.44;99456.06;8435299;28;20773;-77
2022/08/24 09:16:55;;;;;;;1999.90;999.90;;;;;;;30.48;33.23;99452.53;8441454;28;20319;-77
2022/08/24 09:21:08;;;;;;;1999.90;999.90;;;;;;;30.66;32.08;99450.97;8436867;28;21013;-77
2022/08/24 09:25:25;;;;;;;1999.90;999.90;;;;;;;30.92;33.06;99446.03;8415978;28;20045;-77
2022/08/24 09:29:56;;;;;;;1999.90;999.90;;;;;;;31.14;31.28;99436.94;8436537;28;20044;-77
2022/08/24 09:34:14;;;;;;;1999.90;999.90;;;;;;;31.35;32.09;99441.41;8399948;28;20094;-78
2022/08/24 09:38:44;;;;;;;1999.90;999.90;;;;;;;31.46;30.31;99439.47;8407226;28;20041;-77
2022/08/24 09:43:16;;;;;;;1999.90;999.90;;;;;;;31.68;31.28;99438.34;8391044;28;20123;-77
2022/08/24 09:47:54;;;;;;;1999.90;999.90;;;;;;;31.79;30.70;99435.56;8394230;28;20079;-76
2022/08/24 09:52:05;;;;;;;1999.90;999.90;;;;;;;32.02;29.80;99441.50;8417619;28;20068;-77
2022/08/24 09:56:31;;;;;;;1999.90;999.90;;;;;;;32.11;28.85;99439.78;8422983;28;20460;-76
2022/08/24 10:00:46;;;;;;;1999.90;999.90;;;;;;;32.26;28.27;99438.38;8396666;28;20037;-76
2022/08/24 10:05:25;;;;;;;1999.90;999.90;;;;;;;32.39;26.80;99435.41;8396242;28;20124;-77
2022/08/24 10:10:09;;;;;;;1999.90;999.90;;;;;;;32.51;26.55;99422.66;8361072;28;20730;-76
2022/08/24 10:14:29;;;;;;;1999.90;999.90;;;;;;;32.67;26.71;99423.72;8357689;28;20163;-77
2022/08/24 10:18:44;;;;;;;1999.90;999.90;;;;;;;32.66;26.36;99422.03;8376501;28;20047;-77
2022/08/24 10:23:25;;;;;;;1999.90;999.90;;;;;;;32.77;26.92;99418.31;8407217;28;20106;-76
2022/08/24 10:28:04;;;;;;;1999.90;999.90;;;;;;;32.98;25.87;99412.72;8363328;28;20595;-76
2022/08/24 10:32:19;;;;;;;1999.90;999.90;;;;;;;33.10;26.18;99406.16;8391887;28;20448;-76
2022/08/24 10:36:49;;;;;;;1999.90;999.90;;;;;;;33.10;25.79;99397.25;8387057;28;20684;-76
2022/08/24 10:41:02;;;;;;;1999.90;999.90;;;;;;;33.14;25.71;99399.47;8399287;28;20105;-77
2022/08/24 10:45:19;;;;;;;1999.90;999.90;;;;;;;32.93;25.45;99399.72;8379376;28;20047;-76
2022/08/24 10:49:42;;;;;;;1999.90;999.90;;;;;;;32.85;25.63;99391.53;8424691;28;20070;-76
2022/08/24 10:53:49;;;;;;;1999.90;999.90;;;;;;;32.84;25.99;99387.16;8434192;28;20137;-77
2022/08/24 10:58:12;;;;;;;1999.90;999.90;;;;;;;32.97;25.52;99390.34;8415951;28;20044;-76
2022/08/24 11:02:35;;;;;;;1999.90;999.90;;;;;;;33.12;25.57;99382.63;8408039;28;20043;-77
2022/08/24 11:06:48;;;;;;;1999.90;999.90;;;;;;;33.31;26.14;99374.44;8386668;28;20044;-76
2022/08/24 11:11:03;;;;;;;1999.90;999.90;;;;;;;33.26;23.48;99375.91;8407240;28;20048;-76
2022/08/24 11:15:17;;;;;;;1999.90;999.90;;;;;;;33.37;24.67;99380.22;8395387;28;20126;-76
2022/08/24 11:19:25;;;;;;;1999.90;999.90;;;;;;;33.26;23.26;99363.28;8419894;28;20142;-77
2022/08/24 11:23:35;;;;;;;1999.90;999.90;;;;;;;33.28;24.44;99368.50;8368016;28;20060;-77
2022/08/24 11:27:40;;;;;;;1999.90;999.90;;;;;;;33.26;24.59;99370.50;8366867;28;20052;-77
2022/08/24 11:31:48;;;;;;;1999.90;999.90;;;;;;;33.27;24.14;99367.66;8379916;28;20072;-76
2022/08/24 11:35:50;;;;;;;1999.90;999.90;;;;;;;33.43;23.86;99361.63;8399906;28;20742;-76
2022/08/24 11:39:52;;;;;;;1999.90;999.90;;;;;;;33.55;23.14;99371.16;8377712;28;20070;-77
2022/08/24 11:44:11;;;;;;;1999.90;999.90;;;;;;;33.72;21.97;99365.94;8400945;28;20040;-76
2022/08/24 11:48:45;;;;;;;1999.90;999.90;;;;;;;33.70;21.67;99355.31;8383817;28;20445;-77
2022/08/24 11:53:08;;;;;;;1999.90;999.90;;;;;;;33.94;23.32;99360.09;8381644;28;20056;-76
2022/08/24 11:57:55;;;;;;;1999.90;999.90;;;;;;;33.74;22.74;99354.00;8377684;28;20075;-76
2022/08/24 12:02:02;;;;;;;1999.90;999.90;;;;;;;33.85;23.03;99351.09;8377892;28;20045;-76
2022/08/24 12:06:43;;;;;;;1999.90;999.90;;;;;;;33.90;22.42;99342.53;8351820;28;20051;-76
2022/08/24 12:10:48;;;;;;;1999.90;999.90;;;;;;;33.93;23.42;99353.00;8377815;28;20106;-76
2022/08/24 12:15:00;;;;;;;1999.90;999.90;;;;;;;34.06;22.72;99347.19;8387318;28;20031;-77
2022/08/24 12:19:21;;;;;;;1999.90;999.90;;;;;;;33.99;22.38;99344.31;8360123;28;20737;-76
2022/08/24 12:23:36;;;;;;;1999.90;999.90;;;;;;;34.03;22.78;99344.81;8369895;28;20052;-76
2022/08/24 12:27:44;;;;;;;1999.90;999.90;;;;;;;33.93;21.56;99344.91;8371630;28;20062;-76
2022/08/24 12:31:54;;;;;;;1999.90;999.90;;;;;;;34.01;22.74;99350.38;8358024;28;20548;-77
2022/08/24 12:36:01;;;;;;;1999.90;999.90;;;;;;;34.13;23.14;99349.13;8387612;28;20079;-76
2022/08/24 12:40:38;;;;;;;1999.90;999.90;;;;;;;34.09;22.33;99336.09;8374433;28;20174;-76
2022/08/24 12:44:57;;;;;;;1999.90;999.90;;;;;;;34.09;22.86;99333.41;8383063;28;20120;-76
2022/08/24 12:49:46;;;;;;;1999.90;999.90;;;;;;;34.10;22.38;99332.41;8372117;28;20041;-76
2022/08/24 12:54:09;;;;;;;1999.90;999.90;;;;;;;34.24;22.83;99331.81;8274731;28;20042;-76
2022/08/24 12:58:34;;;;;;;1999.90;999.90;;;;;;;34.21;22.86;99324.91;8291219;28;20440;-75
2022/08/24 13:03:00;;;;;;;1999.90;999.90;;;;;;;33.92;23.26;99327.91;8287601;28;20045;-77
2022/08/24 13:07:30;;;;;;;1999.90;999.90;;;;;;;33.52;23.68;99322.16;8284817;28;20049;-76
2022/08/24 13:11:34;;;;;;;1999.90;999.90;;;;;;;33.29;23.91;99316.38;8286940;28;20667;-76
2022/08/24 13:15:35;;;;;;;1999.90;999.90;;;;;;;33.34;23.67;99314.94;8277892;28;20053;-76
2022/08/24 13:19:41;;;;;;;1999.90;999.90;;;;;;;33.68;23.87;99300.75;8283860;28;20467;-76
2022/08/24 13:24:32;;;;;;;1999.90;999.90;;;;;;;33.92;22.59;99302.81;8335869;28;20068;-75
2022/08/24 13:28:43;;;;;;;1999.90;999.90;;;;;;;34.09;22.84;99301.06;8396256;28;20088;-76
2022/08/24 13:33:03;;;;;;;1999.90;999.90;;;;;;;34.21;22.61;99303.34;8407268;28;20801;-74
2022/08/24 13:37:16;;;;;;;1999.90;999.90;;;;;;;33.85;22.66;99299.91;8388133;28;20059;-75
2022/08/24 13:41:43;;;;;;;1999.90;999.90;;;;;;;33.90;22.99;99299.41;8386753;28;20381;-76
2022/08/24 13:46:21;;;;;;;1999.90;999.90;;;;;;;33.94;21.93;99276.56;8377902;28;20044;-76
2022/08/24 13:51:05;;;;;;;1999.90;999.90;;;;;;;34.10;23.57;99271.25;8385012;28;20044;-75
2022/08/24 13:55:28;;;;;;;1999.90;999.90;;;;;;;34.31;22.78;99278.97;8376451;28;20131;-75
2022/08/24 14:00:07;;;;;;;1999.90;999.90;;;;;;;34.35;22.94;99276.78;8391650;28;20076;-75
2022/08/24 14:04:22;;;;;;;1999.90;999.90;;;;;;;34.34;23.08;99272.41;8389113;28;20041;-75
2022/08/24 14:08:29;;;;;;;1999.90;999.90;;;;;;;34.15;22.72;99273.50;8387563;28;20066;-75
2022/08/24 14:12:31;;;;;;;1999.90;999.90;;;;;;;34.03;23.13;99270.22;8389745;28;20442;-76
2022/08/24 14:21:47;;;;;;;1999.90;999.90;;;;;;;34.30;22.58;99254.88;8375702;28;20150;-76
2022/08/24 14:26:32;;;;;;;1999.90;999.90;;;;;;;34.50;23.28;99257.19;8414407;28;20028;-76
2022/08/24 14:30:34;;;;;;;1999.90;999.90;;;;;;;34.60;21.81;99259.72;8411281;28;20138;-76
2022/08/24 14:35:01;;;;;;;1999.90;999.90;;;;;;;34.67;20.94;99246.44;8413210;28;20063;-75
2022/08/24 14:39:32;;;;;;;1999.90;999.90;;;;;;;34.63;21.69;99253.16;8390820;28;20054;-76
2022/08/24 14:43:49;;;;;;;1999.90;999.90;;;;;;;34.68;22.17;99243.59;8418333;28;20044;-77
2022/08/24 14:48:10;;;;;;;1999.90;999.90;;;;;;;34.77;21.68;99241.72;8394207;28;20052;-76
2022/08/24 14:53:10;;;;;;;1999.90;999.90;;;;;;;34.76;21.95;99243.59;8402188;28;20045;-76
2022/08/24 14:57:38;;;;;;;1999.90;999.90;;;;;;;34.67;21.54;99241.06;8257972;28;20057;-77
2022/08/24 15:01:45;;;;;;;1999.90;999.90;;;;;;;34.41;22.02;99241.97;8269957;28;20144;-76
2022/08/24 15:05:53;;;;;;;1999.90;999.90;;;;;;;34.11;21.83;99242.44;8325439;28;20466;-77
2022/08/24 15:10:14;;;;;;;1999.90;999.90;;;;;;;33.79;22.54;99235.84;8311953;28;20405;-77
2022/08/24 15:14:36;;;;;;;1999.90;999.90;;;;;;;33.74;22.95;99240.84;8330031;28;20052;-77
2022/08/24 15:19:10;;;;;;;1999.90;999.90;;;;;;;33.91;22.29;99239.13;8308966;28;20144;-77
2022/08/24 15:23:25;;;;;;;1999.90;999.90;;;;;;;33.92;22.46;99241.69;8323046;28;21577;-77
2022/08/24 15:27:30;;;;;;;1999.90;999.90;;;;;;;34.07;22.82;99223.06;8391530;27;20056;-77
2022/08/24 15:31:32;;;;;;;1999.90;999.90;;;;;;;34.16;22.14;99226.66;8429027;27;20058;-77
2022/08/24 15:35:40;;;;;;;1999.90;999.90;;;;;;;34.29;21.93;99216.25;8436973;27;20485;-77
2022/08/24 15:39:42;;;;;;;1999.90;999.90;;;;;;;34.38;21.57;99226.09;8436661;27;20142;-77
2022/08/24 15:43:58;;;;;;;1999.90;999.90;;;;;;;34.40;22.08;99218.69;8447876;27;20104;-77
2022/08/24 15:48:01;;;;;;;1999.90;999.90;;;;;;;34.54;22.27;99209.13;8425017;27;20138;-77
2022/08/24 15:52:35;;;;;;;1999.90;999.90;;;;;;;34.60;21.69;99215.72;8450904;27;20126;-76
2022/08/24 15:56:46;;;;;;;1999.90;999.90;;;;;;;34.67;21.68;99217.63;8437087;27;20039;-77
2022/08/24 16:05:24;;;;;;;1999.90;999.90;;;;;;;34.73;21.35;99216.09;8450342;27;20433;-77
2022/08/24 16:09:28;;;;;;;1999.90;999.90;;;;;;;34.66;21.15;99217.78;8442705;27;20051;-78
2022/08/24 16:13:31;;;;;;;1999.90;999.90;;;;;;;34.64;21.54;99215.22;8428954;27;20089;-77
2022/08/24 16:17:37;;;;;;;1999.90;999.90;;;;;;;34.67;21.35;99217.63;8403515;28;20405;-76
2022/08/24 16:21:49;;;;;;;1999.90;999.90;;;;;;;34.74;20.86;99217.78;8438427;28;20067;-76
2022/08/24 16:26:46;;;;;;;1999.90;999.90;;;;;;;34.61;20.82;99218.25;8426095;28;20097;-76
2022/08/24 16:30:57;;;;;;;1999.90;999.90;;;;;;;34.10;21.82;99206.56;8445575;28;20047;-77
2022/08/24 16:35:09;;;;;;;1999.90;999.90;;;;;;;33.61;22.39;99214.34;8412094;28;20035;-77
2022/08/24 16:39:11;;;;;;;1999.90;999.90;;;;;;;33.05;22.07;99217.41;8430123;28;20131;-76
2022/08/24 16:43:12;;;;;;;1999.90;999.90;;;;;;;32.59;22.63;99216.56;8434149;28;20086;-76
2022/08/24 16:47:14;;;;;;;1999.90;999.90;;;;;;;32.22;24.04;99227.34;8441444;27;20057;-76
2022/08/24 16:51:16;;;;;;;1999.90;999.90;;;;;;;31.92;23.49;99222.22;8425284;27;20074;-76
2022/08/24 16:55:17;;;;;;;1999.90;999.90;;;;;;;31.66;23.91;99217.47;8437964;27;20038;-76
2022/08/24 16:59:25;;;;;;;1999.90;999.90;;;;;;;31.44;24.66;99218.66;8444204;27;20044;-76
2022/08/24 17:03:27;;;;;;;1999.90;999.90;;;;;;;31.21;24.36;99225.28;8437182;27;20071;-76
2022/08/24 17:07:35;;;;;;;1999.90;999.90;;;;;;;31.04;25.01;99217.91;8442169;27;20142;-77
2022/08/24 17:11:37;;;;;;;1999.90;999.90;;;;;;;30.87;25.21;99223.00;8446669;27;20074;-77
2022/08/24 17:15:38;;;;;;;1999.90;999.90;;;;;;;30.72;25.38;99227.09;8461718;27;20043;-77
2022/08/24 17:19:40;;;;;;;1999.90;999.90;;;;;;;30.55;25.75;99230.41;8458212;27;20043;-76
2022/08/24 17:23:44;;;;;;;1999.90;999.90;;;;;;;30.42;25.98;99236.00;8398765;28;20508;-76
2022/08/24 17:27:46;;;;;;;1999.90;999.90;;;;;;;30.30;26.20;99229.03;8399963;28;20139;-76
2022/08/24 17:31:54;;;;;;;1999.90;999.90;;;;;;;30.14;26.77;99234.06;8388436;28;20071;-76
2022/08/24 17:35:56;;;;;;;1999.90;999.90;;;;;;;30.03;26.44;99235.81;8413923;28;20066;-77
2022/08/24 17:40:11;;;;;;;1999.90;999.90;;;;;;;29.91;26.83;99239.56;8416519;28;20388;-77
2022/08/24 17:44:19;;;;;;;1999.90;999.90;;;;;;;29.79;26.90;99245.97;8398473;28;20581;-76
2022/08/24 17:48:27;;;;;;;1999.90;999.90;;;;;;;29.63;26.89;99243.78;8375351;28;20052;-76
2022/08/24 17:52:29;;;;;;;1999.90;999.90;;;;;;;29.49;28.17;99249.47;8400302;28;20052;-76
2022/08/24 17:56:36;;;;;;;1999.90;999.90;;;;;;;29.32;28.51;99245.50;8401508;28;20067;-75
2022/08/24 18:00:41;;;;;;;1999.90;999.90;;;;;;;29.12;28.72;99244.50;8371444;28;20048;-76
2022/08/24 18:04:49;;;;;;;1999.90;999.90;;;;;;;28.91;29.43;99258.81;8371092;28;20071;-75
2022/08/24 18:08:51;;;;;;;1999.90;999.90;;;;;;;28.59;31.55;99252.41;8363465;28;20076;-75
2022/08/24 18:12:53;;;;;;;1999.90;999.90;;;;;;;28.20;32.83;99258.22;8364832;28;20151;-75
2022/08/24 18:16:59;;;;;;;1999.90;999.90;;;;;;;27.79;33.71;99262.28;8370280;28;20488;-76
2022/08/24 18:21:07;;;;;;;1999.90;999.90;;;;;;;27.42;34.91;99261.56;8387704;28;20040;-75
2022/08/24 18:25:19;;;;;;;1999.90;999.90;;;;;;;27.08;36.19;99265.91;8460369;27;20090;-76
2022/08/24 18:29:28;;;;;;;1999.90;999.90;;;;;;;26.71;36.35;99270.41;8430741;27;20052;-75
2022/08/24 18:33:31;;;;;;;1999.90;999.90;;;;;;;26.46;35.97;99274.84;8463359;27;20043;-76
2022/08/24 18:37:36;;;;;;;1999.90;999.90;;;;;;;26.20;36.54;99274.00;8463830;27;20146;-76
2022/08/24 18:41:45;;;;;;;1999.90;999.90;;;;;;;25.94;37.03;99274.97;8439195;27;20054;-77
2022/08/24 18:45:51;;;;;;;1999.90;999.90;;;;;;;25.73;37.36;99276.47;8444015;27;20728;-76
2022/08/24 18:49:59;;;;;;;1999.90;999.90;;;;;;;25.46;37.90;99279.97;8463884;27;20043;-76
2022/08/24 18:54:06;;;;;;;1999.90;999.90;;;;;;;25.21;43.03;99294.06;8446520;27;20066;-76